KAAT

Alturas Municipal Airport

Alturas, California, USA
METAR KAAT 230955Z AUTO 36009KT 10SM OVC060 M07/M12 A3011 RMK AO2 SLP231 T10721122
Observed Flight Rules
Feb-23 @ 09:55 UTC (38 minutes ago) Visual Flight Rules
Wind Visibility Clouds
360° at 9 knots 10 miles
  • Overcast at 6,000' AGL
Temperatures Readings
Current -7°C / 19°F
Dewpoint -12°C / 10°F
Humidity 68%
Altimeter 30.11" Hg
Pressure 1023.1 hPa
Elevation 1331
METAR KAAT 230955Z AUTO 36009KT 10SM OVC060 M07/M12 A3011 RMK AO2 SLP231 T10721122
Observed Flight Rules
Feb-23 @ 09:55 UTC
(38 minutes ago)
VFR
Wind Visibility
360° at 9 knots 10 miles
Clouds
  • Overcast at 6,000' AGL
Temperature Dewpoint
-7°C / 19°F -12°C / 10°F
Humidity Altimeter Pressure
68% 30.11" Hg 1023.1 hPa